Time;durP1;ratioP1;P1;durP2;ratioP2;P2;SDS_P1;SDS_P2;PMS_P1;PMS_P2;Temp;Humidity;BMP_temperature;BMP_pressure;BME280_temperature;BME280_humidity;BME280_pressure;Samples;Min_cycle;Max_cycle;Signal;HPM_P1;HPM_P2
2022/09/24 00:00:35;;;;;;;5.03;4.40;;;12.00;99.90;;;;;;5022791;28;20422;-77
2022/09/24 00:03:00;;;;;;;4.87;4.47;;;12.00;99.90;;;;;;5022603;28;20206;-78
2022/09/24 00:05:26;;;;;;;5.13;4.67;;;11.90;99.90;;;;;;5040005;28;20187;-78
2022/09/24 00:07:52;;;;;;;6.00;5.50;;;11.90;99.90;;;;;;5040207;28;20195;-78
2022/09/24 00:10:17;;;;;;;4.97;4.47;;;11.90;99.90;;;;;;5021792;28;20199;-78
2022/09/24 00:12:43;;;;;;;7.40;6.10;;;11.90;99.90;;;;;;5040173;28;20234;-77
2022/09/24 00:15:09;;;;;;;7.43;5.57;;;11.90;99.90;;;;;;5039081;28;20192;-78
2022/09/24 00:17:34;;;;;;;5.17;4.70;;;11.80;99.90;;;;;;5040072;28;20271;-78
2022/09/24 00:20:00;;;;;;;5.60;4.97;;;11.80;99.90;;;;;;5038964;28;20179;-77
2022/09/24 00:22:26;;;;;;;4.70;4.30;;;11.80;99.90;;;;;;5039382;28;20286;-77
2022/09/24 00:27:35;;;;;;;5.27;4.70;;;11.80;99.90;;;;;;5039189;28;20178;-78
2022/09/24 00:30:01;;;;;;;5.40;4.90;;;11.80;99.90;;;;;;5038695;28;20871;-78
2022/09/24 00:32:26;;;;;;;6.17;5.20;;;11.70;99.90;;;;;;5040796;28;20645;-79
2022/09/24 00:34:53;;;;;;;6.27;5.80;;;11.70;99.90;;;;;;5039118;28;20219;-77
2022/09/24 00:37:18;;;;;;;6.93;5.97;;;11.70;99.90;;;;;;5039246;28;20509;-78
2022/09/24 00:39:45;;;;;;;6.37;5.77;;;11.60;99.90;;;;;;5044177;28;20429;-77
2022/09/24 00:42:13;;;;;;;6.10;4.57;;;11.60;99.90;;;;;;5044457;28;20196;-78
2022/09/24 00:44:46;;;;;;;6.03;5.47;;;11.60;99.90;;;;;;5038610;28;20414;-78
2022/09/24 00:47:33;;;;;;;5.90;5.30;;;11.50;99.90;;;;;;5021623;28;20785;-78
2022/09/24 00:50:05;;;;;;;7.63;5.53;;;11.50;99.90;;;;;;5039780;28;20410;-78
2022/09/24 00:52:32;;;;;;;5.60;5.10;;;11.50;99.90;;;;;;5038343;28;20443;-78
2022/09/24 00:54:59;;;;;;;5.50;5.00;;;11.50;99.90;;;;;;5037736;28;20422;-78
2022/09/24 00:57:25;;;;;;;8.70;5.13;;;11.40;99.90;;;;;;5039131;28;20513;-77
2022/09/24 00:59:53;;;;;;;6.57;5.97;;;11.40;99.90;;;;;;5037958;28;20406;-78
2022/09/24 01:02:19;;;;;;;8.33;5.20;;;11.40;99.90;;;;;;5038504;28;20450;-78
2022/09/24 01:04:45;;;;;;;6.10;5.40;;;11.40;99.90;;;;;;5038109;28;20426;-78
2022/09/24 01:07:11;;;;;;;7.07;5.47;;;11.40;99.90;;;;;;5039659;28;20425;-77
2022/09/24 01:09:37;;;;;;;6.50;5.50;;;11.40;99.90;;;;;;5021658;28;20414;-77
2022/09/24 01:12:27;;;;;;;4.97;4.23;;;11.40;99.90;;;;;;5040930;28;20171;-78
2022/09/24 01:15:07;;;;;;;5.70;5.30;;;11.30;99.90;;;;;;5039562;28;20190;-77
2022/09/24 01:17:51;;;;;;;5.10;4.60;;;11.30;99.90;;;;;;5039144;28;20411;-78
2022/09/24 01:20:36;;;;;;;8.80;5.27;;;11.30;99.90;;;;;;5039656;28;20787;-77
2022/09/24 01:23:15;;;;;;;5.90;5.33;;;11.30;99.90;;;;;;5038409;28;20505;-77
2022/09/24 01:26:18;;;;;;;5.93;5.33;;;11.30;99.90;;;;;;5038683;28;20421;-77
2022/09/24 01:28:56;;;;;;;6.97;5.63;;;11.40;99.90;;;;;;5038064;28;20398;-77
2022/09/24 01:31:31;;;;;;;8.47;5.70;;;11.40;99.90;;;;;;5038519;28;20417;-77
2022/09/24 01:34:01;;;;;;;5.60;5.10;;;11.40;99.90;;;;;;5021308;28;20429;-78
2022/09/24 01:36:28;;;;;;;5.47;4.80;;;11.40;99.90;;;;;;5038871;28;21115;-77
2022/09/24 01:38:57;;;;;;;6.43;5.57;;;11.40;99.90;;;;;;5039361;28;20413;-75
2022/09/24 01:41:23;;;;;;;6.30;5.20;;;11.40;99.90;;;;;;5026734;28;20440;-76
2022/09/24 01:43:49;;;;;;;6.57;5.10;;;11.40;99.90;;;;;;5028103;28;20461;-77
2022/09/24 01:46:18;;;;;;;5.80;5.20;;;11.40;99.90;;;;;;5027993;28;20211;-76
2022/09/24 01:48:44;;;;;;;11.10;5.37;;;11.40;99.90;;;;;;5046407;28;20425;-76
2022/09/24 01:51:44;;;;;;;7.40;5.10;;;11.40;99.90;;;;;;5045762;28;20413;-76
2022/09/24 01:54:19;;;;;;;10.47;5.17;;;11.50;99.90;;;;;;5029204;28;20994;-77
2022/09/24 01:57:02;;;;;;;7.03;5.70;;;11.40;99.90;;;;;;5050445;28;20406;-77
2022/09/24 01:59:35;;;;;;;6.20;5.60;;;11.50;99.90;;;;;;5048228;28;20410;-76
2022/09/24 02:02:08;;;;;;;5.67;5.17;;;11.50;99.90;;;;;;5045142;28;20411;-78
2022/09/24 02:04:41;;;;;;;8.57;5.77;;;11.50;99.90;;;;;;5037590;28;20516;-77
2022/09/24 02:07:13;;;;;;;6.30;4.80;;;11.50;99.90;;;;;;5037511;28;20438;-77
2022/09/24 02:09:41;;;;;;;5.97;5.37;;;11.40;99.90;;;;;;5039349;28;20417;-76
2022/09/24 02:12:28;;;;;;;5.03;4.60;;;11.40;99.90;;;;;;5039528;28;20469;-77
2022/09/24 02:14:59;;;;;;;5.60;5.10;;;11.40;99.90;;;;;;5039291;28;20480;-78
2022/09/24 02:17:29;;;;;;;6.67;5.17;;;11.40;99.90;;;;;;5038207;28;20417;-77
2022/09/24 02:19:57;;;;;;;5.60;5.10;;;11.40;99.90;;;;;;5022920;28;20481;-77
2022/09/24 02:22:24;;;;;;;5.93;5.03;;;11.40;99.90;;;;;;5044963;28;20453;-77
2022/09/24 02:25:00;;;;;;;7.27;5.20;;;11.40;99.90;;;;;;5046200;28;20500;-77
2022/09/24 02:27:29;;;;;;;6.20;5.40;;;11.40;99.90;;;;;;5045987;28;20394;-77
2022/09/24 02:29:56;;;;;;;6.00;5.50;;;11.40;99.90;;;;;;5052655;28;20410;-75
2022/09/24 02:32:24;;;;;;;6.27;5.70;;;11.40;99.90;;;;;;5056864;28;20402;-76
2022/09/24 02:34:53;;;;;;;6.20;5.60;;;11.40;99.90;;;;;;5056637;28;20414;-76
2022/09/24 02:37:22;;;;;;;7.30;6.20;;;11.30;99.90;;;;;;5055754;28;20418;-76
2022/09/24 02:39:49;;;;;;;6.27;5.67;;;11.30;99.90;;;;;;5056384;28;20410;-75
2022/09/24 02:42:15;;;;;;;5.90;5.30;;;11.30;99.90;;;;;;5055914;28;20438;-76
2022/09/24 02:44:41;;;;;;;6.77;5.97;;;11.30;99.90;;;;;;5055166;28;20488;-76
2022/09/24 02:47:07;;;;;;;10.40;5.80;;;11.30;99.90;;;;;;5053398;28;20406;-77
2022/09/24 02:49:32;;;;;;;6.00;5.13;;;11.30;99.90;;;;;;5054932;28;20208;-77
2022/09/24 02:51:58;;;;;;;8.47;6.20;;;11.30;99.90;;;;;;5048951;28;20255;-76
2022/09/24 02:54:24;;;;;;;5.70;5.20;;;11.30;99.90;;;;;;5044973;28;20189;-77
2022/09/24 02:56:50;;;;;;;6.33;5.77;;;11.30;99.90;;;;;;5043882;28;20168;-76
2022/09/24 02:59:18;;;;;;;6.73;6.10;;;11.30;99.90;;;;;;5041063;28;20974;-78
2022/09/24 03:01:44;;;;;;;5.27;4.77;;;11.30;99.90;;;;;;5038963;28;20873;-78
2022/09/24 03:04:10;;;;;;;6.60;5.90;;;11.30;99.90;;;;;;5043370;28;20458;-76
2022/09/24 03:06:36;;;;;;;6.27;5.57;;;11.20;99.90;;;;;;5042755;28;20466;-78
2022/09/24 03:09:02;;;;;;;5.77;5.27;;;11.20;99.90;;;;;;5040017;28;20641;-78
2022/09/24 03:11:30;;;;;;;6.80;5.93;;;11.20;99.90;;;;;;5037677;28;20410;-77
2022/09/24 03:13:55;;;;;;;5.60;5.10;;;11.20;99.90;;;;;;5042474;28;20501;-77
2022/09/24 03:16:21;;;;;;;10.00;5.43;;;11.30;99.90;;;;;;5045863;28;20516;-78
2022/09/24 03:18:47;;;;;;;6.30;5.23;;;11.30;99.90;;;;;;5044769;28;20696;-77
2022/09/24 03:21:15;;;;;;;6.40;5.73;;;11.20;99.90;;;;;;5044333;28;20198;-77
2022/09/24 03:23:41;;;;;;;6.00;5.43;;;11.20;99.90;;;;;;5026405;28;20267;-77
2022/09/24 03:26:07;;;;;;;6.17;4.93;;;11.20;99.90;;;;;;5043757;28;20444;-78
2022/09/24 03:28:33;;;;;;;5.97;5.47;;;11.30;99.90;;;;;;5039582;28;20485;-78
2022/09/24 03:30:59;;;;;;;5.90;5.40;;;11.30;99.90;;;;;;5038251;28;20453;-79
2022/09/24 03:33:28;;;;;;;6.90;6.20;;;11.30;99.90;;;;;;5041488;28;20232;-79
2022/09/24 03:35:56;;;;;;;5.70;5.20;;;11.30;99.90;;;;;;5041378;28;20219;-78
2022/09/24 03:38:21;;;;;;;6.80;6.03;;;11.30;99.90;;;;;;5041746;28;20410;-78
2022/09/24 03:40:47;;;;;;;6.90;6.33;;;11.30;99.90;;;;;;5023725;28;20978;-78
2022/09/24 03:43:12;;;;;;;8.20;6.00;;;11.30;99.90;;;;;;5041254;28;20233;-78
2022/09/24 03:45:38;;;;;;;5.60;5.10;;;11.30;99.90;;;;;;5040745;28;20203;-78
2022/09/24 03:48:05;;;;;;;6.00;5.50;;;11.30;99.90;;;;;;5040756;28;20171;-77
2022/09/24 03:50:31;;;;;;;7.23;6.53;;;11.30;99.90;;;;;;5039587;28;20160;-78
2022/09/24 03:52:56;;;;;;;6.57;5.97;;;11.30;99.90;;;;;;5039856;28;20402;-77
2022/09/24 03:55:22;;;;;;;7.47;6.27;;;11.30;99.90;;;;;;5039450;28;20622;-78
2022/09/24 03:57:47;;;;;;;8.53;5.50;;;11.30;99.90;;;;;;5040308;28;20175;-78
2022/09/24 04:00:13;;;;;;;6.30;5.70;;;11.30;99.90;;;;;;5040416;28;20696;-78
2022/09/24 04:02:39;;;;;;;6.67;6.00;;;11.20;99.90;;;;;;5040071;28;20199;-78
2022/09/24 04:05:06;;;;;;;6.30;5.70;;;11.30;99.90;;;;;;5040314;28;20214;-78
2022/09/24 04:07:31;;;;;;;7.20;6.40;;;11.20;99.90;;;;;;5040711;28;20408;-77
2022/09/24 04:09:57;;;;;;;7.10;5.70;;;11.20;99.90;;;;;;5040550;28;20410;-78
2022/09/24 04:12:23;;;;;;;7.90;6.10;;;11.20;99.90;;;;;;5029544;28;20661;-77
2022/09/24 04:14:48;;;;;;;7.63;5.97;;;11.10;99.90;;;;;;5047335;28;20263;-78
2022/09/24 04:17:16;;;;;;;6.43;5.83;;;11.10;99.90;;;;;;5045871;28;20260;-77
2022/09/24 04:19:42;;;;;;;6.10;5.50;;;11.10;99.90;;;;;;5047388;28;20172;-77
2022/09/24 04:22:08;;;;;;;6.63;6.03;;;11.10;99.90;;;;;;5048795;28;20582;-77
2022/09/24 04:24:33;;;;;;;7.70;5.80;;;11.10;99.90;;;;;;5048231;28;20482;-77
2022/09/24 04:26:59;;;;;;;6.60;5.70;;;11.10;99.90;;;;;;5025537;28;20182;-78
2022/09/24 04:29:24;;;;;;;6.77;6.17;;;11.10;99.90;;;;;;5042412;28;20198;-78
2022/09/24 04:31:50;;;;;;;7.10;6.50;;;11.10;99.90;;;;;;5041809;28;20234;-78
2022/09/24 04:34:16;;;;;;;6.13;5.63;;;11.00;99.90;;;;;;5041860;28;20168;-77
2022/09/24 04:36:42;;;;;;;7.33;6.50;;;11.00;99.90;;;;;;5042880;28;20188;-79
2022/09/24 04:39:09;;;;;;;8.50;6.33;;;11.00;99.90;;;;;;5030214;28;20418;-78
2022/09/24 04:41:36;;;;;;;6.13;5.53;;;11.00;99.90;;;;;;5047456;28;20176;-78
2022/09/24 04:44:04;;;;;;;7.20;6.27;;;11.00;99.90;;;;;;5046811;28;20446;-78
2022/09/24 04:46:32;;;;;;;6.60;5.93;;;11.00;99.90;;;;;;5043606;28;20996;-78
2022/09/24 04:48:57;;;;;;;6.33;5.63;;;11.00;99.90;;;;;;5041368;28;20421;-78
2022/09/24 04:51:23;;;;;;;5.80;5.20;;;11.00;99.90;;;;;;5043078;28;20418;-79
2022/09/24 04:53:49;;;;;;;9.13;6.37;;;11.00;99.90;;;;;;5024378;28;20186;-79
2022/09/24 04:56:15;;;;;;;6.10;5.60;;;11.00;99.90;;;;;;5042502;28;20670;-80
2022/09/24 04:58:40;;;;;;;6.47;5.87;;;11.00;99.90;;;;;;5043521;28;20456;-79
2022/09/24 05:01:06;;;;;;;6.60;6.00;;;11.00;99.90;;;;;;5044151;28;20634;-78
2022/09/24 05:03:32;;;;;;;7.30;6.13;;;11.00;99.90;;;;;;5044989;28;20235;-78
2022/09/24 05:05:58;;;;;;;7.03;5.43;;;11.00;99.90;;;;;;5045227;28;20184;-78
2022/09/24 05:08:23;;;;;;;9.00;6.37;;;11.00;99.90;;;;;;5045548;28;20170;-78
2022/09/24 05:10:49;;;;;;;7.17;6.40;;;11.00;99.90;;;;;;5039952;28;20409;-79
2022/09/24 05:13:15;;;;;;;7.50;6.80;;;11.00;99.90;;;;;;5037476;28;20258;-78
2022/09/24 05:15:40;;;;;;;6.77;6.17;;;11.00;99.90;;;;;;5037284;28;20191;-78
2022/09/24 05:18:06;;;;;;;7.67;5.90;;;11.00;99.90;;;;;;5038690;28;20179;-79
2022/09/24 05:20:32;;;;;;;6.73;6.10;;;11.00;99.90;;;;;;5038635;28;20191;-79
2022/09/24 05:22:57;;;;;;;6.10;5.40;;;11.00;99.90;;;;;;5038586;28;20658;-78
2022/09/24 05:25:23;;;;;;;7.13;6.10;;;11.00;99.90;;;;;;5038419;28;20438;-78
2022/09/24 05:27:53;;;;;;;7.33;5.30;;;11.00;99.90;;;;;;5038498;28;20286;-79
2022/09/24 05:30:21;;;;;;;6.33;5.73;;;11.00;99.90;;;;;;5037696;28;20187;-79
2022/09/24 05:32:53;;;;;;;6.57;5.87;;;11.00;99.90;;;;;;5039183;28;20402;-79
2022/09/24 05:35:22;;;;;;;7.67;6.67;;;11.00;99.90;;;;;;5021975;28;20430;-79
2022/09/24 05:37:51;;;;;;;6.33;5.67;;;11.00;99.90;;;;;;5039049;28;20402;-79
2022/09/24 05:43:03;;;;;;;6.57;5.83;;;11.00;99.90;;;;;;5037328;28;20472;-79
2022/09/24 05:45:29;;;;;;;6.27;5.70;;;11.00;99.90;;;;;;5035410;28;20438;-77
2022/09/24 05:47:55;;;;;;;7.13;6.50;;;11.00;99.90;;;;;;5033990;28;20896;-77
2022/09/24 05:50:20;;;;;;;7.47;6.87;;;11.00;99.90;;;;;;5034800;28;20413;-78
2022/09/24 05:52:46;;;;;;;7.43;6.77;;;11.10;99.90;;;;;;5036050;28;20190;-77
2022/09/24 05:55:12;;;;;;;10.50;7.73;;;11.10;99.90;;;;;;5042089;28;20670;-80
2022/09/24 05:57:37;;;;;;;7.67;6.63;;;11.10;99.90;;;;;;5038516;28;20172;-79
2022/09/24 06:00:05;;;;;;;6.50;5.80;;;11.20;99.90;;;;;;5043769;28;20168;-78
2022/09/24 06:02:31;;;;;;;9.93;6.47;;;11.20;99.90;;;;;;5055038;28;20199;-80
2022/09/24 06:04:56;;;;;;;6.10;5.63;;;11.20;99.90;;;;;;5035663;28;20429;-78
2022/09/24 06:07:22;;;;;;;8.27;7.40;;;11.20;99.90;;;;;;5040605;28;20524;-79
2022/09/24 06:09:48;;;;;;;9.40;7.43;;;11.20;99.90;;;;;;5038359;28;20167;-80
2022/09/24 06:12:13;;;;;;;7.23;5.83;;;11.30;99.90;;;;;;5040092;28;20243;-77
2022/09/24 06:14:41;;;;;;;7.47;6.87;;;11.30;99.90;;;;;;5034400;28;20901;-76
2022/09/24 06:17:07;;;;;;;8.70;7.73;;;11.40;99.90;;;;;;5034362;28;20160;-77
2022/09/24 06:19:33;;;;;;;7.37;6.13;;;11.40;99.90;;;;;;5016557;28;20472;-76
2022/09/24 06:21:59;;;;;;;7.00;6.40;;;11.30;99.90;;;;;;5034173;28;20403;-78
2022/09/24 06:24:24;;;;;;;6.60;6.00;;;11.40;99.90;;;;;;5035606;28;20246;-75
2022/09/24 06:26:50;;;;;;;7.40;6.67;;;11.40;99.90;;;;;;5016668;28;20171;-76
2022/09/24 06:29:16;;;;;;;5.73;5.23;;;11.40;99.90;;;;;;5036201;28;20258;-76
2022/09/24 06:31:43;;;;;;;9.90;5.87;;;11.50;99.90;;;;;;5034447;28;20403;-76
2022/09/24 06:34:09;;;;;;;7.07;5.33;;;11.50;99.90;;;;;;5034346;28;20449;-77
2022/09/24 06:36:35;;;;;;;8.10;6.10;;;11.60;99.90;;;;;;5039511;28;20434;-78
2022/09/24 06:39:01;;;;;;;6.27;5.67;;;11.70;99.90;;;;;;5036462;28;20174;-79
2022/09/24 06:41:26;;;;;;;7.67;7.07;;;11.70;99.90;;;;;;5033558;28;20929;-79
2022/09/24 06:43:55;;;;;;;7.50;6.80;;;11.70;99.90;;;;;;5038155;28;20637;-78
2022/09/24 06:46:28;;;;;;;6.90;5.80;;;11.80;99.90;;;;;;5019923;28;20207;-79
2022/09/24 06:48:54;;;;;;;6.20;5.03;;;11.90;99.90;;;;;;5031629;28;20764;-78
2022/09/24 06:51:20;;;;;;;6.90;6.30;;;12.00;99.90;;;;;;5016050;28;20434;-78
2022/09/24 06:53:49;;;;;;;5.53;5.13;;;12.10;99.90;;;;;;5015085;28;20179;-77
2022/09/24 06:56:15;;;;;;;6.00;5.40;;;12.10;99.90;;;;;;5025243;28;20434;-78
2022/09/24 06:58:41;;;;;;;6.23;5.63;;;12.20;99.90;;;;;;5035052;28;20406;-78
2022/09/24 07:01:07;;;;;;;6.33;5.73;;;12.20;99.90;;;;;;5035313;28;20422;-79
2022/09/24 07:03:33;;;;;;;6.67;6.07;;;12.20;99.90;;;;;;5036733;28;20241;-79
2022/09/24 07:06:01;;;;;;;8.17;6.53;;;12.20;99.90;;;;;;5035146;28;20204;-79
2022/09/24 07:08:27;;;;;;;6.00;5.40;;;12.20;99.90;;;;;;5039221;28;20398;-79
2022/09/24 07:10:52;;;;;;;7.20;6.50;;;12.20;99.90;;;;;;5040497;28;20398;-78
2022/09/24 07:13:22;;;;;;;5.47;4.97;;;12.20;99.90;;;;;;5043171;28;20172;-78
2022/09/24 07:15:49;;;;;;;6.20;5.60;;;12.20;99.90;;;;;;5038330;28;20199;-78
2022/09/24 07:18:16;;;;;;;7.10;6.43;;;12.20;99.90;;;;;;5038587;28;20406;-78
2022/09/24 07:20:41;;;;;;;5.80;5.37;;;12.30;99.90;;;;;;5041178;28;20467;-79
2022/09/24 07:23:09;;;;;;;6.83;5.50;;;12.40;99.90;;;;;;5038260;28;20450;-78
2022/09/24 07:25:36;;;;;;;6.77;6.10;;;12.50;99.90;;;;;;5036132;28;20191;-78
2022/09/24 07:28:08;;;;;;;7.67;5.83;;;12.50;99.90;;;;;;5036164;28;20413;-78
2022/09/24 07:30:34;;;;;;;5.83;5.23;;;12.50;99.90;;;;;;5036132;28;20403;-78
2022/09/24 07:33:00;;;;;;;6.90;6.23;;;12.60;99.90;;;;;;5036421;28;20406;-78
2022/09/24 07:35:27;;;;;;;7.77;5.87;;;12.50;99.90;;;;;;5036021;28;20979;-77
2022/09/24 07:38:11;;;;;;;5.70;4.93;;;12.50;99.90;;;;;;5036280;28;20654;-78
2022/09/24 07:40:36;;;;;;;6.20;5.30;;;12.70;99.90;;;;;;5036899;28;20457;-77
2022/09/24 07:43:02;;;;;;;6.70;5.50;;;12.60;99.90;;;;;;5036495;28;20497;-78
2022/09/24 07:45:28;;;;;;;6.03;5.43;;;12.70;99.90;;;;;;5039289;28;20211;-77
2022/09/24 07:48:02;;;;;;;5.53;5.13;;;12.90;99.90;;;;;;5043321;28;20650;-77
2022/09/24 07:50:30;;;;;;;8.50;5.27;;;13.10;99.90;;;;;;5044194;28;20889;-76
2022/09/24 07:52:56;;;;;;;9.70;5.73;;;13.40;99.90;;;;;;5036012;28;20410;-76
2022/09/24 07:55:22;;;;;;;7.93;5.47;;;13.40;99.90;;;;;;5035623;28;21240;-79
2022/09/24 07:57:53;;;;;;;9.17;6.00;;;13.30;99.90;;;;;;5037029;28;20767;-77
2022/09/24 08:00:20;;;;;;;12.70;9.77;;;13.30;99.90;;;;;;5037904;28;20520;-78
2022/09/24 08:02:46;;;;;;;8.73;5.53;;;13.30;99.90;;;;;;5036327;28;20454;-77
2022/09/24 08:05:14;;;;;;;6.70;6.10;;;13.40;99.90;;;;;;5035301;28;20430;-77
2022/09/24 08:07:40;;;;;;;6.13;5.60;;;13.40;99.90;;;;;;5035536;28;20410;-77
2022/09/24 08:10:06;;;;;;;6.63;6.10;;;13.40;99.90;;;;;;5035656;28;20425;-78
2022/09/24 08:12:32;;;;;;;5.77;5.17;;;13.40;99.90;;;;;;5035267;28;20430;-78
2022/09/24 08:14:58;;;;;;;7.53;6.50;;;13.40;99.90;;;;;;5035338;28;20434;-78
2022/09/24 08:17:25;;;;;;;6.10;5.50;;;13.40;99.90;;;;;;5036059;28;20794;-78
2022/09/24 08:19:52;;;;;;;7.30;6.07;;;13.30;99.90;;;;;;5035014;28;20825;-78
2022/09/24 08:22:17;;;;;;;6.90;6.07;;;13.40;99.90;;;;;;5034931;28;20434;-78
2022/09/24 08:24:43;;;;;;;6.30;5.70;;;13.50;99.90;;;;;;5035035;28;20453;-78
2022/09/24 08:27:09;;;;;;;6.30;5.73;;;13.40;99.90;;;;;;5035599;28;20279;-78
2022/09/24 08:29:34;;;;;;;6.77;6.17;;;13.40;99.90;;;;;;5039179;28;20590;-78
2022/09/24 08:32:00;;;;;;;6.67;5.40;;;13.60;99.90;;;;;;5056415;28;20167;-78
2022/09/24 08:34:26;;;;;;;5.57;5.07;;;13.70;99.90;;;;;;5055281;28;20167;-78
2022/09/24 08:36:52;;;;;;;9.50;5.50;;;13.70;99.90;;;;;;5054621;28;20455;-78
2022/09/24 08:39:17;;;;;;;8.50;6.70;;;13.90;99.90;;;;;;5020365;28;20249;-78
2022/09/24 08:41:54;;;;;;;6.40;5.83;;;13.80;99.90;;;;;;5054438;28;20225;-78
2022/09/24 08:47:38;;;;;;;7.23;5.47;;;13.80;99.90;;;;;;5054686;28;20409;-78
2022/09/24 08:50:11;;;;;;;5.80;5.30;;;14.00;99.90;;;;;;5037745;28;20406;-79
2022/09/24 08:52:42;;;;;;;6.37;5.77;;;14.20;99.90;;;;;;5034583;28;20407;-78
2022/09/24 08:55:31;;;;;;;8.13;5.63;;;14.30;99.90;;;;;;5034234;28;20465;-78
2022/09/24 08:58:13;;;;;;;8.83;6.53;;;14.60;99.90;;;;;;5023148;28;20407;-79
2022/09/24 09:00:47;;;;;;;5.63;4.93;;;14.70;99.90;;;;;;5015282;28;20419;-78
2022/09/24 09:03:40;;;;;;;5.83;5.23;;;14.70;99.90;;;;;;5015249;28;20458;-78
2022/09/24 09:06:14;;;;;;;7.13;6.37;;;14.20;99.90;;;;;;5014691;28;20447;-78
2022/09/24 09:09:02;;;;;;;7.23;6.50;;;14.20;99.90;;;;;;5015090;28;20490;-78
2022/09/24 09:11:31;;;;;;;6.20;5.60;;;14.50;99.90;;;;;;5015219;28;20910;-78
2022/09/24 09:14:09;;;;;;;6.17;5.57;;;14.60;99.90;;;;;;5032637;28;20489;-78
2022/09/24 09:16:48;;;;;;;8.13;6.50;;;14.90;99.90;;;;;;5034692;28;20433;-78
2022/09/24 09:19:15;;;;;;;6.43;5.27;;;15.10;99.90;;;;;;5034946;28;20406;-78
2022/09/24 09:21:42;;;;;;;28.13;7.27;;;15.20;99.90;;;;;;5035084;28;20411;-79
2022/09/24 09:24:19;;;;;;;6.23;5.53;;;15.30;99.90;;;;;;5034113;28;20959;-78
2022/09/24 09:26:53;;;;;;;6.63;5.73;;;15.30;99.90;;;;;;5032979;28;20968;-78
2022/09/24 09:29:20;;;;;;;6.30;4.83;;;15.30;99.90;;;;;;5033588;28;20411;-78
2022/09/24 09:32:05;;;;;;;6.53;5.93;;;15.70;99.90;;;;;;5039316;28;20416;-79
2022/09/24 09:35:01;;;;;;;5.20;4.80;;;15.60;99.90;;;;;;5037597;28;20482;-79
2022/09/24 09:37:46;;;;;;;6.40;5.77;;;15.80;99.90;;;;;;5033019;28;20753;-78
2022/09/24 09:40:42;;;;;;;7.30;6.60;;;15.60;99.90;;;;;;5033124;28;20402;-79
2022/09/24 09:43:10;;;;;;;6.30;5.70;;;15.70;99.90;;;;;;5033086;28;20510;-76
2022/09/24 09:45:54;;;;;;;5.73;5.23;;;15.90;99.90;;;;;;5015012;28;20456;-78
2022/09/24 09:48:23;;;;;;;6.73;5.70;;;16.00;99.90;;;;;;5032569;28;20756;-77
2022/09/24 09:50:58;;;;;;;6.10;5.60;;;16.10;99.90;;;;;;5032773;28;21008;-77
2022/09/24 09:53:30;;;;;;;7.90;5.87;;;16.00;99.90;;;;;;5035998;28;20418;-79
2022/09/24 09:56:02;;;;;;;6.20;5.37;;;16.10;99.90;;;;;;5033751;28;20852;-74
2022/09/24 09:58:36;;;;;;;8.57;5.97;;;16.30;99.90;;;;;;5033777;28;20408;-76
2022/09/24 10:01:06;;;;;;;7.43;5.60;;;16.20;99.90;;;;;;5032785;28;21008;-78
2022/09/24 10:03:51;;;;;;;6.03;5.33;;;16.50;99.90;;;;;;5032564;28;20460;-78
2022/09/24 10:06:28;;;;;;;5.57;5.07;;;16.30;99.90;;;;;;5032321;28;20765;-78
2022/09/24 10:09:06;;;;;;;6.57;5.97;;;16.20;99.90;;;;;;5032286;28;20409;-78
2022/09/24 10:11:31;;;;;;;4.90;4.50;;;16.20;99.90;;;;;;5032689;28;20415;-79
2022/09/24 10:14:04;;;;;;;7.40;5.77;;;16.20;99.90;;;;;;5032281;28;21005;-78
2022/09/24 10:16:34;;;;;;;7.23;5.50;;;15.80;99.90;;;;;;5031735;28;20285;-77
2022/09/24 10:18:59;;;;;;;6.33;5.73;;;15.70;99.90;;;;;;5032773;28;20415;-78
2022/09/24 10:21:34;;;;;;;8.53;5.73;;;15.80;99.90;;;;;;5032653;28;20495;-78
2022/09/24 10:24:02;;;;;;;6.80;5.73;;;15.90;99.90;;;;;;5032050;28;20668;-77
2022/09/24 10:26:36;;;;;;;6.57;5.30;;;15.80;99.90;;;;;;5009880;28;20470;-77
2022/09/24 10:31:48;;;;;;;6.50;4.87;;;16.10;99.90;;;;;;5012847;28;20403;-78
2022/09/24 10:34:32;;;;;;;6.47;5.70;;;16.10;99.90;;;;;;4994918;28;20420;-77
2022/09/24 10:37:00;;;;;;;5.53;5.13;;;16.00;99.90;;;;;;5012326;28;20415;-77
2022/09/24 10:39:26;;;;;;;6.97;6.33;;;16.20;99.90;;;;;;5012745;28;20437;-76
2022/09/24 10:41:57;;;;;;;6.40;5.60;;;16.40;99.90;;;;;;4998258;28;20413;-75
2022/09/24 10:44:28;;;;;;;5.20;4.63;;;16.30;99.90;;;;;;5019057;28;20456;-77
2022/09/24 10:47:15;;;;;;;5.80;5.23;;;16.40;99.90;;;;;;5021982;28;20400;-77
2022/09/24 10:50:17;;;;;;;5.80;4.90;;;16.50;99.90;;;;;;5033589;28;20405;-77
2022/09/24 10:52:59;;;;;;;4.90;4.07;;;16.40;99.90;;;;;;5040650;28;20413;-78
2022/09/24 10:55:47;;;;;;;4.83;4.33;;;16.20;99.90;;;;;;5041867;28;20425;-78
2022/09/24 10:58:16;;;;;;;6.87;5.40;;;16.10;99.90;;;;;;5041142;28;20422;-78
2022/09/24 11:01:04;;;;;;;5.47;4.97;;;16.20;99.90;;;;;;5037767;28;20869;-77
2022/09/24 11:03:53;;;;;;;4.90;4.50;;;16.20;99.90;;;;;;4990576;28;20467;-76
2022/09/24 11:06:56;;;;;;;4.87;4.43;;;16.40;99.90;;;;;;5038046;28;21032;-77
2022/09/24 11:09:50;;;;;;;6.97;5.50;;;16.40;99.90;;;;;;5039101;28;20434;-76
2022/09/24 11:12:45;;;;;;;6.43;4.90;;;16.20;99.90;;;;;;5039109;28;20441;-77
2022/09/24 11:15:44;;;;;;;4.90;4.50;;;16.10;99.90;;;;;;5044232;28;20435;-76
2022/09/24 11:18:45;;;;;;;4.73;4.33;;;16.10;99.90;;;;;;5045850;28;20446;-76
2022/09/24 11:21:49;;;;;;;4.33;3.60;;;16.20;99.90;;;;;;5045989;28;20445;-75
2022/09/24 11:24:38;;;;;;;4.43;4.03;;;16.60;99.90;;;;;;5038156;28;20868;-76
2022/09/24 11:27:27;;;;;;;5.07;4.57;;;16.60;99.90;;;;;;5038175;28;20408;-76
2022/09/24 11:30:05;;;;;;;4.30;3.87;;;16.90;99.90;;;;;;5038753;28;20402;-76
2022/09/24 11:33:05;;;;;;;3.80;3.50;;;17.10;99.90;;;;;;5038119;28;20459;-77
2022/09/24 11:35:55;;;;;;;3.53;3.23;;;17.30;99.90;;;;;;5038080;28;20422;-76
2022/09/24 11:38:44;;;;;;;5.17;4.03;;;17.00;99.90;;;;;;5036834;28;20450;-79
2022/09/24 11:41:36;;;;;;;7.07;3.80;;;17.30;99.90;;;;;;5038301;28;20405;-76
2022/09/24 11:44:35;;;;;;;3.90;3.60;;;17.50;99.90;;;;;;5030257;28;20457;-76
2022/09/24 11:47:20;;;;;;;5.53;3.73;;;17.20;99.90;;;;;;5039634;28;20411;-76
2022/09/24 11:50:05;;;;;;;4.80;4.30;;;17.20;99.90;;;;;;5027312;28;20791;-76
2022/09/24 11:52:36;;;;;;;4.20;3.90;;;16.90;99.90;;;;;;5019697;28;20928;-76
2022/09/24 11:55:14;;;;;;;6.93;4.10;;;17.00;99.90;;;;;;5034913;28;20413;-76
2022/09/24 11:57:50;;;;;;;5.30;4.50;;;17.20;99.90;;;;;;5034983;28;20412;-76
2022/09/24 12:00:19;;;;;;;5.93;4.77;;;17.20;99.90;;;;;;5034888;28;20398;-76
2022/09/24 12:03:04;;;;;;;3.60;3.23;;;17.20;99.90;;;;;;5034520;28;20479;-76
2022/09/24 12:05:55;;;;;;;4.63;4.23;;;17.00;99.90;;;;;;5034069;28;20423;-76
2022/09/24 12:08:48;;;;;;;3.87;3.43;;;17.40;99.90;;;;;;5033320;28;20436;-76
2022/09/24 12:11:23;;;;;;;4.80;4.40;;;17.10;99.90;;;;;;5034648;28;20466;-75
2022/09/24 12:13:55;;;;;;;6.70;4.90;;;17.40;99.90;;;;;;5034474;28;20814;-76
2022/09/24 12:16:26;;;;;;;4.20;3.90;;;17.60;99.90;;;;;;5034061;28;20434;-76
2022/09/24 12:19:23;;;;;;;7.30;6.07;;;17.50;99.90;;;;;;5035078;28;20399;-77
2022/09/24 12:21:51;;;;;;;4.73;4.20;;;17.50;99.90;;;;;;5034441;28;20437;-77
2022/09/24 12:24:50;;;;;;;5.00;4.60;;;17.40;99.90;;;;;;5034440;28;20446;-77
2022/09/24 12:27:19;;;;;;;5.27;4.00;;;17.20;99.90;;;;;;5034462;28;20413;-76
2022/09/24 12:33:28;;;;;;;6.47;5.77;;;16.90;99.90;;;;;;5034566;28;20456;-77
2022/09/24 12:36:08;;;;;;;7.13;6.43;;;16.80;99.90;;;;;;5034231;28;20424;-76
2022/09/24 12:38:46;;;;;;;5.63;5.13;;;17.10;99.90;;;;;;5033966;28;20447;-76
2022/09/24 12:41:29;;;;;;;4.97;4.47;;;17.20;99.90;;;;;;5034634;28;20427;-77
2022/09/24 12:44:17;;;;;;;4.80;4.40;;;17.20;99.90;;;;;;5033950;28;20459;-77
2022/09/24 12:46:49;;;;;;;4.93;4.53;;;17.10;99.90;;;;;;5034131;28;20481;-76
2022/09/24 12:49:24;;;;;;;5.30;4.80;;;17.10;99.90;;;;;;5034314;28;20411;-77
2022/09/24 12:51:51;;;;;;;7.27;6.20;;;17.00;99.90;;;;;;5034628;28;20404;-77
2022/09/24 12:54:28;;;;;;;5.23;4.83;;;17.00;99.90;;;;;;5034348;28;20408;-76
2022/09/24 12:57:19;;;;;;;5.50;5.00;;;17.10;99.90;;;;;;5034147;28;20416;-75
2022/09/24 12:59:50;;;;;;;5.20;4.80;;;17.30;99.90;;;;;;5033899;28;20420;-77
2022/09/24 13:02:26;;;;;;;6.47;4.87;;;17.30;99.90;;;;;;5035334;28;20400;-77
2022/09/24 13:05:01;;;;;;;5.33;4.67;;;17.40;99.90;;;;;;5035498;28;20424;-77
2022/09/24 13:07:38;;;;;;;4.47;4.07;;;17.20;99.90;;;;;;5035701;28;20404;-74
2022/09/24 13:10:15;;;;;;;5.40;4.73;;;17.40;99.90;;;;;;5034312;28;20867;-74
2022/09/24 13:12:41;;;;;;;5.37;4.97;;;17.30;99.90;;;;;;5033853;28;20409;-74
2022/09/24 13:15:34;;;;;;;4.93;4.40;;;17.50;99.90;;;;;;5033542;28;20778;-74
2022/09/24 13:18:09;;;;;;;4.50;4.20;;;17.60;99.90;;;;;;5033750;28;20435;-74
2022/09/24 13:20:37;;;;;;;4.80;4.30;;;17.50;99.90;;;;;;5033888;28;20452;-74
2022/09/24 13:23:30;;;;;;;5.20;4.70;;;17.40;99.90;;;;;;5033550;28;20461;-74